Time;durP1;ratioP1;P1;durP2;ratioP2;P2;SDS_P1;SDS_P2;PMS_P1;PMS_P2;Temp;Humidity;BMP_temperature;BMP_pressure;BME280_temperature;BME280_humidity;BME280_pressure;Samples;Min_cycle;Max_cycle;Signal;HPM_P1;HPM_P2
2023/05/03 00:00:16;;;;;;;1.42;0.40;;;18.10;1.00;;;;;;4842679;29;20066;-47
2023/05/03 00:02:43;;;;;;;1.80;0.55;;;18.10;1.00;;;;;;4842611;29;20054;-45
2023/05/03 00:05:11;;;;;;;1.65;0.40;;;18.10;1.00;;;;;;4842187;29;20106;-45
2023/05/03 00:07:40;;;;;;;1.75;0.68;;;18.10;1.00;;;;;;4842334;29;20518;-46
2023/05/03 00:10:09;;;;;;;2.67;0.47;;;18.10;1.00;;;;;;4842384;29;20572;-43
2023/05/03 00:12:40;;;;;;;2.30;0.40;;;18.10;1.00;;;;;;4842253;29;20433;-44
2023/05/03 00:15:08;;;;;;;1.27;0.32;;;18.10;1.00;;;;;;4841875;29;20037;-46
2023/05/03 00:17:35;;;;;;;2.63;0.50;;;18.10;1.00;;;;;;4834546;29;20049;-44
2023/05/03 00:20:03;;;;;;;3.25;0.40;;;18.00;1.00;;;;;;4842188;29;20114;-46
2023/05/03 00:22:31;;;;;;;1.92;0.65;;;18.00;1.00;;;;;;4841984;29;20050;-43
2023/05/03 00:25:01;;;;;;;0.75;0.40;;;18.00;1.00;;;;;;4841801;29;20054;-43
2023/05/03 00:27:28;;;;;;;2.53;0.40;;;18.00;1.00;;;;;;4842077;29;20484;-44
2023/05/03 00:29:55;;;;;;;1.65;0.60;;;18.00;1.00;;;;;;4840775;29;20486;-43
2023/05/03 00:32:22;;;;;;;0.68;0.20;;;18.00;1.00;;;;;;4840001;29;20045;-45
2023/05/03 00:34:53;;;;;;;0.98;0.28;;;18.00;1.00;;;;;;4841624;29;20120;-44
2023/05/03 00:37:21;;;;;;;2.50;0.40;;;18.00;1.00;;;;;;4842002;29;20471;-44
2023/05/03 00:39:48;;;;;;;3.47;0.35;;;18.00;1.00;;;;;;4840397;29;20038;-44
2023/05/03 00:42:15;;;;;;;1.50;0.75;;;18.00;1.00;;;;;;4841741;29;20038;-45
2023/05/03 00:44:42;;;;;;;0.77;0.40;;;18.00;1.00;;;;;;4841174;29;20550;-45
2023/05/03 00:47:09;;;;;;;1.55;0.40;;;18.00;1.00;;;;;;4841791;29;20046;-45
2023/05/03 00:49:36;;;;;;;3.75;0.43;;;18.00;1.00;;;;;;4841468;29;20037;-47
2023/05/03 00:52:04;;;;;;;1.42;0.77;;;17.90;1.00;;;;;;4840490;29;20381;-46
2023/05/03 00:54:32;;;;;;;1.10;0.50;;;17.90;1.00;;;;;;4840060;29;20509;-44
2023/05/03 00:57:00;;;;;;;1.50;0.40;;;18.00;1.00;;;;;;4841511;29;20049;-46
2023/05/03 00:59:27;;;;;;;3.13;0.43;;;17.90;1.00;;;;;;4841396;29;20037;-44
2023/05/03 01:01:54;;;;;;;1.50;0.38;;;17.90;1.00;;;;;;4841742;29;20046;-46
2023/05/03 01:04:22;;;;;;;1.42;0.60;;;17.90;1.00;;;;;;4839769;29;20046;-43
2023/05/03 01:07:09;;;;;;;0.60;0.22;;;17.90;1.00;;;;;;4841406;29;20495;-44
2023/05/03 01:10:05;;;;;;;2.35;0.40;;;17.90;1.00;;;;;;4840045;29;20080;-44
2023/05/03 01:12:47;;;;;;;2.38;0.63;;;17.90;1.00;;;;;;4833928;29;20050;-43
2023/05/03 01:15:45;;;;;;;3.30;1.40;;;17.90;1.00;;;;;;4839705;29;20082;-43
2023/05/03 01:18:19;;;;;;;0.65;0.20;;;17.90;1.00;;;;;;4832759;29;20409;-46
2023/05/03 01:20:48;;;;;;;0.93;0.30;;;17.80;1.00;;;;;;4840073;29;20041;-44
2023/05/03 01:23:42;;;;;;;1.23;0.50;;;17.90;1.00;;;;;;4841268;29;20647;-45
2023/05/03 01:26:26;;;;;;;0.60;0.28;;;17.80;1.00;;;;;;4841141;29;20050;-44
2023/05/03 01:28:54;;;;;;;0.90;0.30;;;17.80;1.00;;;;;;4829787;29;20050;-45
2023/05/03 01:31:27;;;;;;;0.93;0.30;;;17.90;1.00;;;;;;4836889;29;20045;-45
2023/05/03 01:34:49;;;;;;;1.60;0.45;;;17.80;1.00;;;;;;4839609;29;20041;-44
2023/05/03 01:37:17;;;;;;;1.88;0.43;;;17.80;1.00;;;;;;4787387;29;20465;-43
2023/05/03 01:39:53;;;;;;;2.35;0.20;;;17.80;1.00;;;;;;4802459;29;20500;-45
2023/05/03 01:42:21;;;;;;;1.02;0.40;;;17.80;1.00;;;;;;4821197;29;20046;-44
2023/05/03 01:44:49;;;;;;;2.75;0.55;;;17.80;1.00;;;;;;4842147;29;20384;-44
2023/05/03 01:47:16;;;;;;;1.38;0.63;;;17.80;1.00;;;;;;4843517;29;20137;-43
2023/05/03 01:49:43;;;;;;;3.72;0.52;;;17.80;1.00;;;;;;4843540;29;20107;-43
2023/05/03 01:52:09;;;;;;;1.48;0.50;;;17.80;1.00;;;;;;4844740;29;20114;-44
2023/05/03 01:54:36;;;;;;;1.15;0.45;;;17.80;1.00;;;;;;4844178;29;20473;-44
2023/05/03 01:57:04;;;;;;;2.25;0.40;;;17.70;1.00;;;;;;4843433;29;20038;-43
2023/05/03 01:59:30;;;;;;;1.58;0.57;;;17.80;1.00;;;;;;4843361;29;20405;-43
2023/05/03 02:01:57;;;;;;;1.58;0.40;;;17.70;1.00;;;;;;4843130;29;20037;-44
2023/05/03 02:04:24;;;;;;;0.75;0.20;;;17.70;1.00;;;;;;4844184;29;20466;-43
2023/05/03 02:06:51;;;;;;;0.60;0.30;;;17.70;1.00;;;;;;4843297;29;20524;-44
2023/05/03 02:09:18;;;;;;;1.13;0.28;;;17.70;1.00;;;;;;4842993;29;20046;-45
2023/05/03 02:11:45;;;;;;;1.42;0.40;;;17.70;1.00;;;;;;4844433;29;20045;-46
2023/05/03 02:14:11;;;;;;;1.08;0.52;;;17.70;1.00;;;;;;4836571;29;20472;-43
2023/05/03 02:16:38;;;;;;;2.08;0.32;;;17.70;1.00;;;;;;4841843;29;20049;-46
2023/05/03 02:19:06;;;;;;;0.75;0.30;;;17.70;1.00;;;;;;4844498;29;20034;-44
2023/05/03 02:21:34;;;;;;;0.40;0.20;;;17.70;1.00;;;;;;4842824;29;20460;-45
2023/05/03 02:24:01;;;;;;;1.02;0.45;;;17.70;1.00;;;;;;4844042;29;20088;-44
2023/05/03 02:26:28;;;;;;;0.75;0.22;;;17.70;1.00;;;;;;4842115;29;20053;-44
2023/05/03 02:28:56;;;;;;;2.53;1.45;;;17.70;1.00;;;;;;4828186;29;20053;-44
2023/05/03 02:31:26;;;;;;;1.10;0.22;;;17.70;1.00;;;;;;4842739;29;20057;-44
2023/05/03 02:33:55;;;;;;;0.50;0.30;;;17.70;1.00;;;;;;4842504;29;20490;-45
2023/05/03 02:36:22;;;;;;;1.67;0.40;;;17.70;1.00;;;;;;4842519;29;20050;-43
2023/05/03 02:38:49;;;;;;;0.73;0.35;;;17.70;1.00;;;;;;4842594;29;20041;-45
2023/05/03 02:41:17;;;;;;;2.28;0.50;;;17.60;1.00;;;;;;4842654;29;20046;-44
2023/05/03 02:43:43;;;;;;;0.82;0.30;;;17.60;1.00;;;;;;4842230;29;20119;-45
2023/05/03 02:46:11;;;;;;;1.17;0.40;;;17.60;1.00;;;;;;4842250;29;20049;-45
2023/05/03 02:48:38;;;;;;;1.27;0.50;;;17.70;1.00;;;;;;4842429;29;20058;-44
2023/05/03 02:51:05;;;;;;;0.98;0.63;;;17.60;1.00;;;;;;4842318;29;20068;-43
2023/05/03 02:53:32;;;;;;;1.13;0.22;;;17.60;1.00;;;;;;4842096;29;20057;-46
2023/05/03 02:56:01;;;;;;;1.92;0.47;;;17.60;1.00;;;;;;4841687;29;20037;-44
2023/05/03 02:58:28;;;;;;;0.90;0.52;;;17.60;1.00;;;;;;4843714;29;20325;-44
2023/05/03 03:00:57;;;;;;;0.95;0.50;;;17.60;1.00;;;;;;4842326;29;20041;-44
2023/05/03 03:03:27;;;;;;;1.70;0.47;;;17.60;1.00;;;;;;4827412;29;20094;-44
2023/05/03 03:05:54;;;;;;;0.80;0.35;;;17.60;1.00;;;;;;4843335;29;20038;-46
2023/05/03 03:08:22;;;;;;;0.60;0.40;;;17.60;1.00;;;;;;4842055;29;20053;-43
2023/05/03 03:10:50;;;;;;;1.45;0.40;;;17.60;1.00;;;;;;4841900;29;20566;-44
2023/05/03 03:13:16;;;;;;;1.23;0.28;;;17.60;1.00;;;;;;4841859;29;20490;-43
2023/05/03 03:15:43;;;;;;;1.38;0.63;;;17.60;1.00;;;;;;4834074;29;20058;-43
2023/05/03 03:18:10;;;;;;;2.40;0.38;;;17.60;1.00;;;;;;4842031;29;20084;-44
2023/05/03 03:20:37;;;;;;;0.80;0.40;;;17.60;1.00;;;;;;4843026;29;20038;-43
2023/05/03 03:23:03;;;;;;;2.42;0.60;;;17.60;1.00;;;;;;4841827;29;20568;-44
2023/05/03 03:25:31;;;;;;;0.70;0.38;;;17.60;1.00;;;;;;4841575;29;20046;-44
2023/05/03 03:27:57;;;;;;;0.95;0.60;;;17.50;1.00;;;;;;4841825;29;20129;-44
2023/05/03 03:30:25;;;;;;;0.77;0.43;;;17.50;1.00;;;;;;4841951;29;20070;-43
2023/05/03 03:33:01;;;;;;;1.10;0.52;;;17.50;1.00;;;;;;4842944;29;20030;-44
2023/05/03 03:35:36;;;;;;;1.15;0.50;;;17.50;1.00;;;;;;4841476;29;20398;-43
2023/05/03 03:38:04;;;;;;;2.35;0.52;;;17.50;1.00;;;;;;4841915;29;20435;-42
2023/05/03 03:40:33;;;;;;;0.85;0.60;;;17.50;1.00;;;;;;4841575;29;20052;-43
2023/05/03 03:42:59;;;;;;;1.73;0.50;;;17.50;1.00;;;;;;4842910;29;20046;-43
2023/05/03 03:45:26;;;;;;;1.52;0.30;;;17.50;1.00;;;;;;4841168;29;20050;-43
2023/05/03 03:47:56;;;;;;;0.90;0.60;;;17.50;1.00;;;;;;4842864;29;20053;-45
2023/05/03 03:50:24;;;;;;;2.03;0.52;;;17.50;1.00;;;;;;4841391;29;20137;-46
2023/05/03 03:52:51;;;;;;;2.10;0.32;;;17.50;1.00;;;;;;4842675;29;20049;-45
2023/05/03 03:55:18;;;;;;;0.68;0.40;;;17.50;1.00;;;;;;4827080;29;20133;-44
2023/05/03 03:57:47;;;;;;;2.65;0.32;;;17.40;1.00;;;;;;4840408;29;20053;-43
2023/05/03 04:00:15;;;;;;;1.75;1.00;;;17.40;1.00;;;;;;4841402;29;20106;-43
2023/05/03 04:02:48;;;;;;;1.88;0.68;;;17.50;1.00;;;;;;4841117;29;20054;-43
2023/05/03 04:05:17;;;;;;;2.58;0.40;;;17.40;1.00;;;;;;4840875;29;20057;-44
2023/05/03 04:07:45;;;;;;;0.70;0.30;;;17.40;1.00;;;;;;4840422;29;20077;-44
2023/05/03 04:10:13;;;;;;;3.75;1.27;;;17.40;1.00;;;;;;4840659;29;20509;-45
2023/05/03 04:12:40;;;;;;;1.02;0.40;;;17.40;1.00;;;;;;4840817;29;20058;-43
2023/05/03 04:15:08;;;;;;;2.67;1.05;;;17.40;1.00;;;;;;4835584;29;20574;-43
2023/05/03 04:17:37;;;;;;;0.75;0.30;;;17.40;1.00;;;;;;4837380;29;20098;-43
2023/05/03 04:20:09;;;;;;;6.75;0.50;;;17.40;1.00;;;;;;4840006;29;20140;-45
2023/05/03 04:22:39;;;;;;;8.40;1.40;;;17.40;1.00;;;;;;4840660;29;20049;-48
2023/05/03 04:25:15;;;;;;;2.58;1.25;;;17.40;1.00;;;;;;4840221;29;20122;-45
2023/05/03 04:27:47;;;;;;;4.78;0.80;;;17.40;1.00;;;;;;4840084;29;20057;-44
2023/05/03 04:30:16;;;;;;;16.08;1.00;;;17.30;1.00;;;;;;4826329;29;20409;-44
2023/05/03 04:32:47;;;;;;;2.45;0.55;;;17.30;1.00;;;;;;4840645;29;20078;-44
2023/05/03 04:35:14;;;;;;;1.75;0.52;;;17.30;1.00;;;;;;4840221;29;20042;-44
2023/05/03 04:37:45;;;;;;;1.77;0.50;;;17.30;1.00;;;;;;4840561;29;20459;-43
2023/05/03 04:40:18;;;;;;;2.20;0.60;;;17.30;1.00;;;;;;4840669;29;20122;-43
2023/05/03 04:42:51;;;;;;;5.57;0.77;;;17.30;1.00;;;;;;4840397;29;20065;-44
2023/05/03 04:45:19;;;;;;;3.97;0.55;;;17.30;1.00;;;;;;4840375;29;20173;-43
2023/05/03 04:47:47;;;;;;;1.13;0.80;;;17.30;1.00;;;;;;4840850;29;20046;-45
2023/05/03 04:50:14;;;;;;;1.08;0.60;;;17.30;1.00;;;;;;4841002;29;20042;-43
2023/05/03 04:52:43;;;;;;;2.80;0.55;;;17.30;1.00;;;;;;4840356;29;20073;-45
2023/05/03 04:55:11;;;;;;;5.30;0.60;;;17.20;1.00;;;;;;4840402;29;20049;-44
2023/05/03 04:57:38;;;;;;;0.88;0.30;;;17.20;1.00;;;;;;4841723;29;20046;-45
2023/05/03 05:00:10;;;;;;;2.55;0.68;;;17.20;1.00;;;;;;4840419;29;20045;-44
2023/05/03 05:02:42;;;;;;;4.43;1.23;;;17.20;1.00;;;;;;4840405;29;20077;-45
2023/05/03 05:05:10;;;;;;;1.88;0.47;;;17.20;1.00;;;;;;4840060;29;20145;-43
2023/05/03 05:07:37;;;;;;;1.55;0.50;;;17.20;1.00;;;;;;4840074;29;20053;-44
2023/05/03 05:10:05;;;;;;;1.92;0.95;;;17.20;1.00;;;;;;4840295;29;20529;-44
2023/05/03 05:12:32;;;;;;;0.98;0.40;;;17.20;1.00;;;;;;4840124;29;20046;-43
2023/05/03 05:15:01;;;;;;;1.90;0.60;;;17.20;1.00;;;;;;4836282;29;20046;-45
2023/05/03 05:17:29;;;;;;;2.35;0.50;;;17.20;1.00;;;;;;4836231;29;20046;-44
2023/05/03 05:19:57;;;;;;;2.92;0.50;;;17.20;1.00;;;;;;4839982;29;20502;-43
2023/05/03 05:22:27;;;;;;;3.28;0.45;;;17.20;1.00;;;;;;4840009;29;20046;-44
2023/05/03 05:24:58;;;;;;;2.10;0.40;;;17.20;1.00;;;;;;4839809;29;20133;-46
2023/05/03 05:27:26;;;;;;;3.00;0.35;;;17.20;1.00;;;;;;4839878;29;20052;-43
2023/05/03 05:29:55;;;;;;;3.75;0.57;;;17.10;1.00;;;;;;4839930;29;20061;-44
2023/05/03 05:32:22;;;;;;;2.45;0.65;;;17.20;1.00;;;;;;4841185;29;20048;-44
2023/05/03 05:34:54;;;;;;;1.30;0.50;;;17.10;1.00;;;;;;4839662;29;20106;-43
2023/05/03 05:37:25;;;;;;;0.65;0.28;;;17.20;1.00;;;;;;4839856;29;20042;-44
2023/05/03 05:39:53;;;;;;;1.15;0.85;;;17.20;1.00;;;;;;4839935;29;20046;-45
2023/05/03 05:42:22;;;;;;;1.20;0.50;;;17.20;1.00;;;;;;4840110;29;20415;-44
2023/05/03 05:44:51;;;;;;;0.68;0.40;;;17.10;1.00;;;;;;4838917;29;20107;-44
2023/05/03 05:47:18;;;;;;;1.95;0.50;;;17.20;1.00;;;;;;4827005;29;20133;-45
2023/05/03 05:49:47;;;;;;;1.73;0.47;;;17.10;1.00;;;;;;4839815;29;20418;-43
2023/05/03 05:52:14;;;;;;;1.45;0.40;;;17.10;1.00;;;;;;4839737;29;20098;-46
2023/05/03 05:54:41;;;;;;;2.83;0.40;;;17.10;1.00;;;;;;4840175;29;20080;-43
2023/05/03 05:57:08;;;;;;;0.95;0.50;;;17.10;1.00;;;;;;4833078;29;20498;-43
2023/05/03 05:59:35;;;;;;;2.90;0.40;;;17.20;1.00;;;;;;4839903;29;20466;-44
2023/05/03 06:02:02;;;;;;;1.55;0.45;;;17.20;1.00;;;;;;4839654;29;20070;-44
2023/05/03 06:04:29;;;;;;;3.05;0.50;;;17.10;1.00;;;;;;4839355;29;20053;-43
2023/05/03 06:06:56;;;;;;;1.73;0.43;;;17.10;1.00;;;;;;4839514;29;20050;-45
2023/05/03 06:09:23;;;;;;;1.08;0.35;;;17.10;1.00;;;;;;4839583;29;20498;-44
2023/05/03 06:11:55;;;;;;;0.98;0.40;;;17.10;1.00;;;;;;4839342;29;20050;-44
2023/05/03 06:14:23;;;;;;;1.23;0.40;;;17.10;1.00;;;;;;4839189;29;20503;-44
2023/05/03 06:16:50;;;;;;;2.28;0.50;;;17.10;1.00;;;;;;4837950;29;20068;-44
2023/05/03 06:19:17;;;;;;;0.60;0.20;;;17.10;1.00;;;;;;4839340;29;20551;-45
2023/05/03 06:21:44;;;;;;;0.63;0.30;;;17.10;1.00;;;;;;4839261;29;20616;-46
2023/05/03 06:24:11;;;;;;;3.15;0.55;;;17.10;1.00;;;;;;4840424;29;20054;-44
2023/05/03 06:26:38;;;;;;;1.05;0.35;;;17.10;1.00;;;;;;4839572;29;20104;-44
2023/05/03 06:29:05;;;;;;;2.90;0.60;;;17.10;1.00;;;;;;4839288;29;20061;-45
2023/05/03 06:31:32;;;;;;;2.17;0.52;;;17.10;1.00;;;;;;4842479;29;20046;-44
2023/05/03 06:33:59;;;;;;;1.95;0.38;;;17.10;1.00;;;;;;4842641;29;20125;-43
2023/05/03 06:36:28;;;;;;;1.85;0.60;;;17.10;1.00;;;;;;4842675;29;20045;-44
2023/05/03 06:38:56;;;;;;;1.40;0.47;;;17.10;1.00;;;;;;4842502;29;20506;-43
2023/05/03 06:41:23;;;;;;;2.67;1.00;;;17.10;1.00;;;;;;4842691;29;20038;-43
2023/05/03 06:43:49;;;;;;;0.80;0.30;;;17.10;1.00;;;;;;4833510;29;20050;-45
2023/05/03 06:46:16;;;;;;;1.55;0.52;;;17.10;1.00;;;;;;4837675;29;20037;-45
2023/05/03 06:48:46;;;;;;;0.82;0.30;;;17.10;1.00;;;;;;4842440;29;20427;-45
2023/05/03 06:51:13;;;;;;;1.70;0.38;;;17.10;1.00;;;;;;4843858;29;20129;-43
2023/05/03 06:53:40;;;;;;;1.80;0.40;;;17.10;1.00;;;;;;4842426;29;20090;-44
2023/05/03 06:56:06;;;;;;;1.30;0.47;;;17.10;1.00;;;;;;4842196;29;20054;-46
2023/05/03 06:58:33;;;;;;;0.98;0.30;;;17.10;1.00;;;;;;4843569;29;20038;-45
2023/05/03 07:01:00;;;;;;;3.53;0.50;;;17.10;1.00;;;;;;4843461;29;20114;-43
2023/05/03 07:03:27;;;;;;;1.35;0.57;;;17.10;1.00;;;;;;4843317;29;20042;-44
2023/05/03 07:05:54;;;;;;;1.60;0.30;;;17.10;1.00;;;;;;4843279;29;20517;-46
2023/05/03 07:08:21;;;;;;;0.65;0.40;;;17.10;1.00;;;;;;4843493;29;20069;-45
2023/05/03 07:10:48;;;;;;;1.25;0.52;;;17.10;1.00;;;;;;4843288;29;20046;-46
2023/05/03 07:13:14;;;;;;;1.73;0.50;;;17.10;1.00;;;;;;4843409;29;20416;-45
2023/05/03 07:15:41;;;;;;;1.48;0.30;;;17.10;1.00;;;;;;4828947;29;20082;-44
2023/05/03 07:18:08;;;;;;;1.00;0.43;;;17.10;1.00;;;;;;4843565;29;20072;-46
2023/05/03 07:20:35;;;;;;;1.45;0.77;;;17.10;1.00;;;;;;4843271;29;20060;-45
2023/05/03 07:23:03;;;;;;;1.70;0.55;;;17.10;1.00;;;;;;4843303;29;20199;-46
2023/05/03 07:25:30;;;;;;;0.82;0.20;;;17.00;1.00;;;;;;4843095;29;20042;-45
2023/05/03 07:27:57;;;;;;;0.88;0.40;;;17.00;1.00;;;;;;4843220;29;20050;-45
2023/05/03 07:30:24;;;;;;;1.90;0.30;;;17.10;1.00;;;;;;4843238;29;20046;-45
2023/05/03 07:32:51;;;;;;;0.75;0.15;;;17.10;1.00;;;;;;4842913;29;20482;-43
2023/05/03 07:35:18;;;;;;;0.80;0.30;;;17.10;1.00;;;;;;4842677;29;20038;-43
2023/05/03 07:37:45;;;;;;;1.00;0.50;;;17.10;1.00;;;;;;4842967;29;20094;-43
2023/05/03 07:40:12;;;;;;;1.33;0.50;;;17.10;1.00;;;;;;4843064;29;20081;-44
2023/05/03 07:42:39;;;;;;;2.00;0.70;;;17.10;1.00;;;;;;4841905;29;20090;-47
2023/05/03 07:45:06;;;;;;;0.90;0.38;;;17.10;1.00;;;;;;4842533;29;20088;-46
2023/05/03 07:47:36;;;;;;;4.03;0.88;;;17.10;1.00;;;;;;4843412;29;20056;-43
2023/05/03 07:50:05;;;;;;;1.17;0.35;;;17.10;1.00;;;;;;4845106;29;20435;-46
2023/05/03 07:52:36;;;;;;;0.80;0.50;;;17.10;1.00;;;;;;4846806;29;20455;-46
2023/05/03 07:55:03;;;;;;;1.02;0.30;;;17.00;1.00;;;;;;4843275;29;20088;-44
2023/05/03 07:57:31;;;;;;;2.42;0.50;;;17.00;1.00;;;;;;4845063;29;20498;-46
2023/05/03 07:59:58;;;;;;;0.88;0.57;;;17.10;1.00;;;;;;4844470;29;20049;-44
2023/05/03 08:02:25;;;;;;;0.80;0.30;;;17.10;1.00;;;;;;4839245;29;20038;-46
2023/05/03 08:04:53;;;;;;;2.05;0.40;;;17.10;1.00;;;;;;4843706;29;20049;-45
2023/05/03 08:07:20;;;;;;;0.73;0.20;;;17.10;1.00;;;;;;4844145;29;20050;-43
2023/05/03 08:09:48;;;;;;;1.77;0.60;;;17.10;1.00;;;;;;4843673;29;20075;-44
2023/05/03 08:12:14;;;;;;;1.10;0.25;;;17.10;1.00;;;;;;4844006;29;20093;-44
2023/05/03 08:14:41;;;;;;;0.50;0.20;;;17.00;1.00;;;;;;4841782;29;20457;-46
2023/05/03 08:17:08;;;;;;;0.95;0.40;;;17.10;1.00;;;;;;4834637;29;20061;-44
2023/05/03 08:19:35;;;;;;;1.38;0.35;;;17.10;1.00;;;;;;4842310;29;20045;-43
2023/05/03 08:22:02;;;;;;;1.35;0.50;;;17.00;1.00;;;;;;4842008;29;20058;-43
2023/05/03 08:24:29;;;;;;;4.53;0.52;;;17.10;1.00;;;;;;4842004;29;20098;-44
2023/05/03 08:26:55;;;;;;;4.30;0.60;;;17.10;1.00;;;;;;4842580;29;20110;-45
2023/05/03 08:29:22;;;;;;;0.77;0.30;;;17.10;1.00;;;;;;4842031;29;20487;-44
2023/05/03 08:31:51;;;;;;;1.25;0.50;;;17.00;1.00;;;;;;4841909;29;20050;-44
2023/05/03 08:34:18;;;;;;;0.95;0.40;;;17.10;1.00;;;;;;4841668;29;20045;-44
2023/05/03 08:36:45;;;;;;;0.70;0.65;;;17.10;1.00;;;;;;4841887;29;20050;-45
2023/05/03 08:39:14;;;;;;;1.73;0.20;;;17.10;1.00;;;;;;4842010;29;20550;-45
2023/05/03 08:41:40;;;;;;;1.55;0.35;;;17.10;1.00;;;;;;4841802;29;20046;-46
2023/05/03 08:44:11;;;;;;;1.40;0.30;;;17.10;1.00;;;;;;4840373;29;20053;-45
2023/05/03 08:46:38;;;;;;;1.83;0.55;;;17.10;1.00;;;;;;4841817;29;20053;-45
2023/05/03 08:49:06;;;;;;;1.42;0.25;;;17.10;1.00;;;;;;4841628;29;20046;-44
2023/05/03 08:51:34;;;;;;;1.10;0.43;;;17.10;1.00;;;;;;4841110;29;20548;-44
2023/05/03 08:54:01;;;;;;;1.00;0.30;;;17.10;1.00;;;;;;4840739;29;20124;-46
2023/05/03 08:56:40;;;;;;;1.88;0.60;;;17.10;1.00;;;;;;4840822;29;20042;-44
2023/05/03 08:59:08;;;;;;;0.85;0.32;;;17.10;1.00;;;;;;4841399;29;20372;-45
2023/05/03 09:01:36;;;;;;;0.98;0.30;;;17.10;1.00;;;;;;4841528;29;20050;-45
2023/05/03 09:04:04;;;;;;;1.50;0.28;;;17.10;1.00;;;;;;4841486;29;20563;-44
2023/05/03 09:06:34;;;;;;;0.40;0.20;;;17.10;1.00;;;;;;4841393;29;20037;-46
2023/05/03 09:09:07;;;;;;;1.35;0.30;;;17.10;1.00;;;;;;4841313;29;20124;-44
2023/05/03 09:11:36;;;;;;;1.00;0.28;;;17.10;1.00;;;;;;4834095;29;20049;-45
2023/05/03 09:14:14;;;;;;;2.22;0.40;;;17.10;1.00;;;;;;4841349;29;20062;-45
2023/05/03 09:16:46;;;;;;;1.45;0.40;;;17.10;1.00;;;;;;4833783;29;20718;-45
2023/05/03 09:19:14;;;;;;;1.55;0.35;;;17.10;1.00;;;;;;4826806;29;20045;-44
2023/05/03 09:21:43;;;;;;;1.48;0.47;;;17.10;1.00;;;;;;4841317;29;20474;-43
2023/05/03 09:24:19;;;;;;;2.58;0.75;;;17.20;1.00;;;;;;4841360;29;20464;-45
2023/05/03 09:26:48;;;;;;;0.63;0.30;;;17.20;1.00;;;;;;4841288;29;20052;-45
2023/05/03 09:29:34;;;;;;;1.35;0.28;;;17.10;1.00;;;;;;4841404;29;20144;-44
2023/05/03 09:32:07;;;;;;;1.17;0.30;;;17.20;1.00;;;;;;4841220;29;20064;-44
2023/05/03 09:34:34;;;;;;;1.45;0.40;;;17.20;1.00;;;;;;4841004;29;20125;-43
2023/05/03 09:37:01;;;;;;;1.00;0.40;;;17.20;1.00;;;;;;4841005;29;20046;-45
2023/05/03 09:39:28;;;;;;;1.73;0.50;;;17.20;1.00;;;;;;4841169;29;20124;-45
2023/05/03 09:41:55;;;;;;;0.98;0.40;;;17.10;1.00;;;;;;4841159;29;20057;-46
2023/05/03 09:44:40;;;;;;;2.10;0.63;;;17.20;1.00;;;;;;4840757;29;20162;-44
2023/05/03 09:47:08;;;;;;;1.80;0.63;;;17.20;1.00;;;;;;4841135;29;20133;-44
2023/05/03 09:49:37;;;;;;;1.40;0.40;;;17.20;1.00;;;;;;4841213;29;20053;-44
2023/05/03 09:52:06;;;;;;;1.02;0.20;;;17.20;1.00;;;;;;4841081;29;20486;-44
2023/05/03 09:54:36;;;;;;;1.88;0.40;;;17.20;1.00;;;;;;4840984;29;20084;-43
2023/05/03 09:57:04;;;;;;;2.25;0.80;;;17.20;1.00;;;;;;4840805;29;20081;-44
2023/05/03 09:59:33;;;;;;;1.73;0.60;;;17.20;1.00;;;;;;4841025;29;20444;-44
2023/05/03 10:02:04;;;;;;;1.45;0.65;;;17.20;1.00;;;;;;4839682;29;20061;-45
2023/05/03 10:04:42;;;;;;;1.70;0.63;;;17.30;1.00;;;;;;4835643;29;20102;-42
2023/05/03 10:07:16;;;;;;;0.80;0.40;;;17.30;1.00;;;;;;4844524;29;20058;-43
2023/05/03 10:09:46;;;;;;;1.42;0.73;;;17.20;1.00;;;;;;4844528;29;20121;-45
2023/05/03 10:12:16;;;;;;;1.30;0.40;;;17.30;1.00;;;;;;4841484;29;20570;-43
2023/05/03 10:14:45;;;;;;;1.52;0.40;;;17.30;1.00;;;;;;4832690;29;20494;-43
2023/05/03 10:17:17;;;;;;;1.10;0.55;;;17.30;1.00;;;;;;4836681;29;20053;-43
2023/05/03 10:20:02;;;;;;;3.35;0.80;;;17.30;1.00;;;;;;4844263;29;20048;-44
2023/05/03 10:22:30;;;;;;;0.73;0.43;;;17.30;1.00;;;;;;4844367;29;20045;-46
2023/05/03 10:25:00;;;;;;;2.30;0.70;;;17.30;1.00;;;;;;4844026;29;20046;-44
2023/05/03 10:27:43;;;;;;;0.82;0.35;;;17.30;1.00;;;;;;4843972;29;20448;-43
2023/05/03 10:30:31;;;;;;;0.80;0.47;;;17.30;1.00;;;;;;4844031;29;20049;-44
2023/05/03 10:32:59;;;;;;;1.10;0.40;;;17.30;1.00;;;;;;4844258;29;20053;-46
2023/05/03 10:35:27;;;;;;;0.52;0.30;;;17.30;1.00;;;;;;4843929;29;20053;-44
2023/05/03 10:37:58;;;;;;;0.73;0.43;;;17.30;1.00;;;;;;4843998;29;20088;-44
2023/05/03 10:40:40;;;;;;;1.42;0.40;;;17.30;1.00;;;;;;4844102;29;20054;-44
2023/05/03 10:43:27;;;;;;;1.10;0.37;;;17.40;1.00;;;;;;4843776;29;20118;-43
2023/05/03 10:45:58;;;;;;;2.25;0.45;;;17.40;1.00;;;;;;4842433;29;20098;-44
2023/05/03 10:48:27;;;;;;;0.95;0.32;;;17.40;1.00;;;;;;4843927;29;20060;-45
2023/05/03 10:50:55;;;;;;;0.93;0.20;;;17.40;1.00;;;;;;4842455;29;20050;-45
2023/05/03 10:53:34;;;;;;;2.38;0.40;;;17.40;1.00;;;;;;4843537;29;20054;-46
2023/05/03 10:56:07;;;;;;;2.90;0.50;;;17.40;1.00;;;;;;4843830;29;20441;-44
2023/05/03 10:58:42;;;;;;;1.15;0.40;;;17.40;1.00;;;;;;4843606;29;20038;-44
2023/05/03 11:01:11;;;;;;;0.85;0.40;;;17.40;1.00;;;;;;4843564;29;20075;-47
2023/05/03 11:04:02;;;;;;;1.55;0.47;;;17.40;1.00;;;;;;4843539;29;20041;-44
2023/05/03 11:06:34;;;;;;;2.05;0.55;;;17.40;1.00;;;;;;4843626;29;20458;-45
2023/05/03 11:09:07;;;;;;;1.23;0.40;;;17.50;1.00;;;;;;4843299;29;20414;-44
2023/05/03 11:11:36;;;;;;;2.15;0.40;;;17.40;1.00;;;;;;4843594;29;20077;-45
2023/05/03 11:14:04;;;;;;;1.45;0.30;;;17.50;1.00;;;;;;4843140;29;20582;-43
2023/05/03 11:16:31;;;;;;;2.25;0.43;;;17.50;1.00;;;;;;4835139;29;20042;-44
2023/05/03 11:18:59;;;;;;;1.85;0.57;;;17.50;1.00;;;;;;4843208;29;20098;-44
2023/05/03 11:21:26;;;;;;;0.70;0.35;;;17.50;1.00;;;;;;4843276;29;20044;-43
2023/05/03 11:23:53;;;;;;;1.85;0.52;;;17.50;1.00;;;;;;4843318;29;20053;-43
2023/05/03 11:26:24;;;;;;;0.52;0.20;;;17.50;1.00;;;;;;4843078;29;20473;-43
2023/05/03 11:28:53;;;;;;;0.57;0.28;;;17.50;1.00;;;;;;4843365;29;20143;-47
2023/05/03 11:31:21;;;;;;;1.48;0.60;;;17.60;1.00;;;;;;4843224;29;20049;-44
2023/05/03 11:33:49;;;;;;;2.20;0.60;;;17.50;1.00;;;;;;4843050;29;20053;-44
2023/05/03 11:36:16;;;;;;;4.38;0.35;;;17.50;1.00;;;;;;4842883;29;20074;-45
2023/05/03 11:38:44;;;;;;;1.63;0.60;;;17.50;1.00;;;;;;4843177;29;20078;-45
2023/05/03 11:41:13;;;;;;;2.05;0.73;;;17.50;1.00;;;;;;4842932;29;20501;-47
2023/05/03 11:43:47;;;;;;;1.65;0.50;;;17.60;1.00;;;;;;4842542;29;20050;-45
2023/05/03 11:46:26;;;;;;;1.30;0.50;;;17.60;1.00;;;;;;4842881;29;20049;-46
2023/05/03 11:48:54;;;;;;;1.13;0.50;;;17.60;1.00;;;;;;4834299;29;20445;-46
2023/05/03 11:51:26;;;;;;;2.30;0.45;;;17.60;1.00;;;;;;4827813;29;20102;-45
2023/05/03 11:53:52;;;;;;;1.58;0.32;;;17.60;1.00;;;;;;4842427;29;20129;-45
2023/05/03 11:56:21;;;;;;;2.63;0.35;;;17.60;1.00;;;;;;4842397;29;20440;-43
2023/05/03 11:58:58;;;;;;;1.70;0.40;;;17.60;1.00;;;;;;4842613;29;20042;-45
2023/05/03 12:01:27;;;;;;;2.28;0.60;;;17.60;1.00;;;;;;4842438;29;20072;-45
2023/05/03 12:03:59;;;;;;;2.25;0.60;;;17.60;1.00;;;;;;4842425;29;20050;-45
2023/05/03 12:06:32;;;;;;;0.80;0.50;;;17.60;1.00;;;;;;4842548;29;20050;-46
2023/05/03 12:09:02;;;;;;;1.35;0.73;;;17.60;1.00;;;;;;4842305;29;20057;-43
2023/05/03 12:11:39;;;;;;;0.77;0.40;;;17.60;1.00;;;;;;4842640;29;20049;-46
2023/05/03 12:14:08;;;;;;;1.30;0.40;;;17.60;1.00;;;;;;4842250;29;20061;-45
2023/05/03 12:16:48;;;;;;;1.83;0.38;;;17.60;1.00;;;;;;4834408;29;20419;-44
2023/05/03 12:19:27;;;;;;;0.60;0.35;;;17.60;1.00;;;;;;4842336;29;20049;-46
2023/05/03 12:21:58;;;;;;;2.28;0.43;;;17.60;1.00;;;;;;4842130;29;20106;-45
2023/05/03 12:24:45;;;;;;;1.58;0.40;;;17.60;1.00;;;;;;4841771;29;20057;-44
2023/05/03 12:27:15;;;;;;;1.38;0.40;;;17.70;1.00;;;;;;4841467;29;20046;-44
2023/05/03 12:29:45;;;;;;;1.35;0.50;;;17.70;1.00;;;;;;4841907;29;20118;-45
2023/05/03 12:32:27;;;;;;;1.03;0.40;;;17.60;1.00;;;;;;4842107;29;20042;-48
2023/05/03 12:34:55;;;;;;;2.53;0.50;;;17.60;1.00;;;;;;4842143;29;20364;-43
2023/05/03 12:37:23;;;;;;;1.33;0.60;;;17.70;1.00;;;;;;4827050;29;20490;-45
2023/05/03 12:39:53;;;;;;;2.97;0.88;;;17.60;1.00;;;;;;4842145;29;20094;-44
2023/05/03 12:42:40;;;;;;;3.28;0.35;;;17.70;1.00;;;;;;4841906;29;20049;-44
2023/05/03 12:45:11;;;;;;;1.30;0.57;;;17.70;1.00;;;;;;4841447;29;20046;-45
2023/05/03 12:47:39;;;;;;;1.02;0.57;;;17.70;1.00;;;;;;4841555;29;20391;-44
2023/05/03 12:50:10;;;;;;;1.58;0.70;;;17.70;1.00;;;;;;4841908;29;20455;-44
2023/05/03 12:52:38;;;;;;;2.65;0.63;;;17.70;1.00;;;;;;4841646;29;20542;-46
2023/05/03 12:55:06;;;;;;;1.27;0.60;;;17.70;1.00;;;;;;4841597;29;20056;-45
2023/05/03 12:57:37;;;;;;;1.42;0.50;;;17.70;1.00;;;;;;4842103;29;20117;-44
2023/05/03 13:00:08;;;;;;;1.45;0.43;;;17.70;1.00;;;;;;4840407;29;20042;-44
2023/05/03 13:02:41;;;;;;;1.10;0.40;;;17.70;1.00;;;;;;4841627;29;20038;-48
2023/05/03 13:05:28;;;;;;;0.90;0.50;;;17.70;1.00;;;;;;4841572;29;20046;-46
2023/05/03 13:08:02;;;;;;;1.13;0.30;;;17.70;1.00;;;;;;4841439;29;20098;-43
2023/05/03 13:10:37;;;;;;;1.85;0.50;;;17.70;1.00;;;;;;4840009;29;20137;-48